createdAt,value
2019-03-09T00:00:43.009Z,3.80
2019-03-09T00:03:30.005Z,3.70
2019-03-09T00:06:15.876Z,3.70
2019-03-09T00:09:01.197Z,3.60
2019-03-09T00:11:46.467Z,3.60
2019-03-09T00:14:32.282Z,3.50
2019-03-09T00:17:17.651Z,3.50
2019-03-09T00:20:05.139Z,3.40
2019-03-09T00:23:04.063Z,3.40
2019-03-09T00:26:09.925Z,3.30
2019-03-09T00:32:16.408Z,3.30
2019-03-09T00:35:01.540Z,3.20
2019-03-09T00:37:46.746Z,3.20
2019-03-09T00:40:31.782Z,3.20
2019-03-09T00:43:16.902Z,3.10
2019-03-09T00:46:02.542Z,3.10
2019-03-09T00:48:47.772Z,3.10
2019-03-09T00:51:52.902Z,3.10
2019-03-09T00:54:37.995Z,3.20
2019-03-09T00:57:23.332Z,3.10
2019-03-09T01:00:12.522Z,3.10
2019-03-09T01:03:00.029Z,3.00
2019-03-09T01:05:45.261Z,3.00
2019-03-09T01:08:30.444Z,3.00
2019-03-09T01:11:16.119Z,3.00
2019-03-09T01:14:01.156Z,2.90
2019-03-09T01:16:46.631Z,2.90
2019-03-09T01:19:32.130Z,2.80
2019-03-09T01:22:17.304Z,2.90
2019-03-09T01:25:03.243Z,2.90
2019-03-09T01:27:48.190Z,2.90
2019-03-09T01:30:34.520Z,2.90
2019-03-09T01:33:20.125Z,2.90
2019-03-09T01:36:05.002Z,2.90
2019-03-09T01:38:50.215Z,2.90
2019-03-09T01:41:36.895Z,2.90
2019-03-09T01:44:24.232Z,3.00
2019-03-09T01:47:09.478Z,3.00
2019-03-09T01:52:50.210Z,3.10
2019-03-09T01:55:37.418Z,3.00
2019-03-09T01:58:22.613Z,3.00
2019-03-09T02:01:08.805Z,3.00
2019-03-09T02:03:55.122Z,3.00
2019-03-09T02:06:39.854Z,3.00
2019-03-09T02:09:24.892Z,3.10
2019-03-09T02:12:10.198Z,3.10
2019-03-09T02:14:55.188Z,3.10
2019-03-09T02:17:40.521Z,3.10
2019-03-09T02:20:25.873Z,3.20
2019-03-09T02:23:12.589Z,3.30
2019-03-09T02:25:57.644Z,3.30
2019-03-09T02:28:43.988Z,3.40
2019-03-09T02:31:29.026Z,3.40
2019-03-09T02:34:14.474Z,3.50
2019-03-09T02:36:59.548Z,3.50
2019-03-09T02:39:46.754Z,3.60
2019-03-09T02:42:31.646Z,3.60
2019-03-09T02:45:19.647Z,3.60
2019-03-09T02:48:05.019Z,3.70
2019-03-09T02:50:56.853Z,3.70
2019-03-09T02:53:42.251Z,3.70
2019-03-09T02:56:27.566Z,3.70
2019-03-09T02:59:12.848Z,3.70
2019-03-09T03:01:59.940Z,3.70
2019-03-09T03:04:46.212Z,3.70
2019-03-09T03:07:31.582Z,3.70
2019-03-09T03:10:16.852Z,3.70
2019-03-09T03:13:02.113Z,3.70
2019-03-09T03:15:47.885Z,3.70
2019-03-09T03:18:33.244Z,3.70
2019-03-09T03:21:19.007Z,3.70
2019-03-09T03:24:04.277Z,3.70
2019-03-09T03:26:49.511Z,3.70
2019-03-09T03:29:34.798Z,3.70
2019-03-09T03:32:20.009Z,3.70
2019-03-09T03:35:07.447Z,3.70
2019-03-09T03:37:53.047Z,3.70
2019-03-09T03:40:38.155Z,3.70
2019-03-09T03:43:23.653Z,3.60
2019-03-09T03:46:08.842Z,3.60
2019-03-09T03:48:53.876Z,3.50
2019-03-09T03:51:38.671Z,3.50
2019-03-09T03:54:23.952Z,3.60
2019-03-09T03:57:09.466Z,3.60
2019-03-09T03:59:54.473Z,3.60
2019-03-09T04:02:41.295Z,3.60
2019-03-09T04:05:27.513Z,3.70
2019-03-09T04:08:13.633Z,3.70
2019-03-09T04:10:58.753Z,3.80
2019-03-09T04:13:44.424Z,3.80
2019-03-09T04:16:29.644Z,3.80
2019-03-09T04:19:14.690Z,3.80
2019-03-09T04:21:59.845Z,3.80
2019-03-09T04:24:45.222Z,3.80
2019-03-09T04:27:30.216Z,3.90
2019-03-09T04:30:15.630Z,3.90
2019-03-09T04:33:00.477Z,3.90
2019-03-09T04:35:45.785Z,3.80
2019-03-09T04:38:30.685Z,3.80
2019-03-09T04:41:17.059Z,3.80
2019-03-09T04:44:02.485Z,3.70
2019-03-09T04:46:47.560Z,3.70
2019-03-09T04:49:32.911Z,3.70
2019-03-09T04:52:18.345Z,3.70
2019-03-09T04:55:06.651Z,3.80
2019-03-09T04:57:52.130Z,3.80
2019-03-09T05:00:37.285Z,3.80
2019-03-09T05:03:22.523Z,3.80
2019-03-09T05:06:08.652Z,3.90
2019-03-09T05:08:59.406Z,3.90
2019-03-09T05:11:44.244Z,4.00
2019-03-09T05:14:29.692Z,4.00
2019-03-09T05:17:14.874Z,4.10
2019-03-09T05:20:00.468Z,4.10
2019-03-09T05:22:45.335Z,4.10
2019-03-09T05:25:30.285Z,4.20
2019-03-09T05:28:15.342Z,4.20
2019-03-09T05:31:01.056Z,4.30
2019-03-09T05:33:46.177Z,4.30
2019-03-09T05:36:31.413Z,4.40
2019-03-09T05:39:16.579Z,4.40
2019-03-09T05:42:01.735Z,4.50
2019-03-09T05:44:46.885Z,4.50
2019-03-09T05:47:32.543Z,4.50
2019-03-09T05:50:17.701Z,4.60
2019-03-09T05:53:07.608Z,4.70
2019-03-09T05:55:52.746Z,4.80
2019-03-09T05:58:37.865Z,4.80
2019-03-09T06:01:23.352Z,4.90
2019-03-09T06:04:08.434Z,5.00
2019-03-09T06:06:54.004Z,5.10
2019-03-09T06:09:38.993Z,5.10
2019-03-09T06:12:24.156Z,5.10
2019-03-09T06:15:09.140Z,5.10
2019-03-09T06:17:54.619Z,5.20
2019-03-09T06:20:39.901Z,5.00
2019-03-09T06:23:25.208Z,5.10
2019-03-09T06:26:10.586Z,5.00
2019-03-09T06:28:55.575Z,5.10
2019-03-09T06:32:02.565Z,5.10
2019-03-09T06:34:47.654Z,5.20
2019-03-09T06:37:32.865Z,5.20
2019-03-09T06:40:18.301Z,5.20
2019-03-09T06:43:03.993Z,5.20
2019-03-09T06:45:48.943Z,5.20
2019-03-09T06:48:34.063Z,5.30
2019-03-09T06:51:18.886Z,5.40
2019-03-09T06:54:04.183Z,5.40
2019-03-09T06:56:49.512Z,5.50
2019-03-09T06:59:34.793Z,5.60
2019-03-09T07:02:20.306Z,5.60
2019-03-09T07:05:06.242Z,5.60
2019-03-09T07:07:51.147Z,5.70
2019-03-09T07:10:36.808Z,5.70
2019-03-09T07:13:21.991Z,5.70
2019-03-09T07:16:07.062Z,5.70
2019-03-09T07:18:52.461Z,5.80
2019-03-09T07:21:37.686Z,5.90
2019-03-09T07:24:23.844Z,5.90
2019-03-09T07:27:09.127Z,6.00
2019-03-09T07:29:54.773Z,6.10
2019-03-09T07:32:39.822Z,6.10
2019-03-09T07:35:25.365Z,6.20
2019-03-09T07:38:10.365Z,6.30
2019-03-09T07:40:55.565Z,6.40
2019-03-09T07:43:42.543Z,6.40
2019-03-09T07:46:27.616Z,6.50
2019-03-09T07:49:13.041Z,6.60
2019-03-09T07:52:00.302Z,6.70
2019-03-09T07:54:45.654Z,6.80
2019-03-09T07:57:30.943Z,6.60
2019-03-09T08:00:18.230Z,6.80
2019-03-09T08:03:03.753Z,6.80
2019-03-09T08:05:49.135Z,6.80
2019-03-09T08:08:34.237Z,6.90
2019-03-09T08:11:19.915Z,6.80
2019-03-09T08:14:05.359Z,6.90
2019-03-09T08:16:50.491Z,6.90
2019-03-09T08:19:35.745Z,7.00
2019-03-09T08:22:21.689Z,7.00
2019-03-09T08:25:10.199Z,7.20
2019-03-09T08:27:55.417Z,7.40
2019-03-09T08:30:44.911Z,7.60
2019-03-09T08:33:30.974Z,7.70
2019-03-09T08:36:17.296Z,7.80
2019-03-09T08:39:04.813Z,8.00
2019-03-09T08:41:50.210Z,8.10
2019-03-09T08:44:35.404Z,8.10
2019-03-09T08:47:20.932Z,8.10
2019-03-09T08:50:09.754Z,8.10
2019-03-09T08:52:54.384Z,8.10
2019-03-09T08:55:39.581Z,8.10
2019-03-09T08:58:24.719Z,8.00
2019-03-09T09:01:10.691Z,7.90
2019-03-09T09:03:56.987Z,8.00
2019-03-09T09:06:42.204Z,7.90
2019-03-09T09:09:27.473Z,8.00
2019-03-09T09:12:14.163Z,8.00
2019-03-09T09:14:59.359Z,8.10
2019-03-09T09:17:46.760Z,8.20
2019-03-09T09:20:31.895Z,8.20
2019-03-09T09:23:19.109Z,8.30
2019-03-09T09:26:13.383Z,8.40
2019-03-09T09:29:00.100Z,8.40
2019-03-09T09:31:44.894Z,8.30
2019-03-09T09:34:30.494Z,8.30
2019-03-09T09:37:16.730Z,8.20
2019-03-09T09:42:54.174Z,7.70
2019-03-09T09:45:40.212Z,7.30
2019-03-09T09:48:25.705Z,7.10
2019-03-09T09:51:13.161Z,6.80
2019-03-09T09:53:57.848Z,6.70
2019-03-09T09:56:42.665Z,6.60
2019-03-09T09:59:27.907Z,6.50
2019-03-09T10:02:14.220Z,6.50
2019-03-09T10:05:02.871Z,6.50
2019-03-09T10:07:48.521Z,6.30
2019-03-09T10:10:33.997Z,6.40
2019-03-09T10:13:19.447Z,6.50
2019-03-09T10:16:04.700Z,6.50
2019-03-09T10:18:49.929Z,6.60
2019-03-09T10:21:36.768Z,6.40
2019-03-09T10:24:22.587Z,6.40
2019-03-09T10:27:08.076Z,6.30
2019-03-09T10:29:53.290Z,6.30
2019-03-09T10:32:38.372Z,6.40
2019-03-09T10:35:24.120Z,6.30
2019-03-09T10:38:09.270Z,6.10
2019-03-09T10:40:55.300Z,6.00
2019-03-09T10:43:40.350Z,6.10
2019-03-09T10:46:26.213Z,6.00
2019-03-09T10:49:31.289Z,6.00
2019-03-09T10:52:16.056Z,5.80
2019-03-09T10:55:01.605Z,5.70
2019-03-09T10:57:46.851Z,5.70
2019-03-09T11:00:39.253Z,5.60
2019-03-09T11:03:24.339Z,5.50
2019-03-09T11:06:11.226Z,5.50
2019-03-09T11:08:56.633Z,5.50
2019-03-09T11:11:54.191Z,5.40
2019-03-09T11:14:40.192Z,5.40
2019-03-09T11:17:25.773Z,5.40
2019-03-09T11:20:14.555Z,5.20
2019-03-09T11:23:00.038Z,5.40
2019-03-09T11:25:45.295Z,5.30
2019-03-09T11:28:30.476Z,5.20
2019-03-09T11:31:15.251Z,5.30
2019-03-09T11:34:00.373Z,5.30
2019-03-09T11:36:46.312Z,5.30
2019-03-09T11:39:31.512Z,5.20
2019-03-09T11:42:16.971Z,5.30
2019-03-09T11:45:02.227Z,5.30
2019-03-09T11:47:47.742Z,5.30
2019-03-09T11:50:33.126Z,5.40
2019-03-09T11:53:18.161Z,5.40
2019-03-09T11:56:03.787Z,5.50
2019-03-09T11:58:48.809Z,5.60
2019-03-09T12:01:34.224Z,5.60
2019-03-09T12:04:20.331Z,5.70
2019-03-09T12:07:05.573Z,5.80
2019-03-09T12:09:51.097Z,5.80
2019-03-09T12:12:36.395Z,5.90
2019-03-09T12:15:21.822Z,6.10
2019-03-09T12:18:06.799Z,6.20
2019-03-09T12:20:51.987Z,6.20
2019-03-09T12:23:37.256Z,6.30
2019-03-09T12:26:22.964Z,6.40
2019-03-09T12:29:08.754Z,6.50
2019-03-09T12:31:53.754Z,6.60
2019-03-09T12:34:39.150Z,6.90
2019-03-09T12:37:24.498Z,7.50
2019-03-09T12:40:16.415Z,7.80
2019-03-09T12:43:01.421Z,8.10
2019-03-09T12:45:48.777Z,8.10
2019-03-09T12:48:37.050Z,8.00
2019-03-09T12:51:24.831Z,8.00
2019-03-09T12:54:10.583Z,7.90
2019-03-09T12:56:59.124Z,7.80
2019-03-09T12:59:44.645Z,7.70
2019-03-09T13:02:29.818Z,7.50
2019-03-09T13:05:16.349Z,7.40
2019-03-09T13:08:01.821Z,7.30
2019-03-09T13:10:47.137Z,7.30
2019-03-09T13:13:33.777Z,7.40
2019-03-09T13:16:19.020Z,7.40
2019-03-09T13:19:05.810Z,7.40
2019-03-09T13:21:50.914Z,7.50
2019-03-09T13:24:36.575Z,7.30
2019-03-09T13:27:21.549Z,7.70
2019-03-09T13:30:18.955Z,7.70
2019-03-09T13:33:04.310Z,7.80
2019-03-09T13:35:50.584Z,8.10
2019-03-09T13:38:35.891Z,8.30
2019-03-09T13:41:22.307Z,8.30
2019-03-09T13:44:07.768Z,8.20
2019-03-09T13:46:52.730Z,8.40
2019-03-09T13:49:38.059Z,8.30
2019-03-09T13:52:23.573Z,8.20
2019-03-09T13:55:09.526Z,8.20
2019-03-09T13:57:54.744Z,8.30
2019-03-09T14:00:40.669Z,8.30
2019-03-09T14:03:26.968Z,8.40
2019-03-09T14:06:11.948Z,8.50
2019-03-09T14:08:56.879Z,8.60
2019-03-09T14:11:42.613Z,8.60
2019-03-09T14:14:27.685Z,8.60
2019-03-09T14:17:12.504Z,8.60
2019-03-09T14:19:57.610Z,8.70
2019-03-09T14:22:43.985Z,8.70
2019-03-09T14:25:28.978Z,8.70
2019-03-09T14:28:14.264Z,8.60
2019-03-09T14:30:59.542Z,8.50
2019-03-09T14:33:46.706Z,8.50
2019-03-09T14:36:31.603Z,8.60
2019-03-09T14:39:16.887Z,8.70
2019-03-09T14:42:02.237Z,8.70
2019-03-09T14:44:47.591Z,8.60
2019-03-09T14:47:32.861Z,8.70
2019-03-09T14:50:20.148Z,8.60
2019-03-09T14:53:05.486Z,8.50
2019-03-09T14:55:51.944Z,8.40
2019-03-09T14:58:37.178Z,8.40
2019-03-09T15:01:22.569Z,8.40
2019-03-09T15:04:07.718Z,8.30
2019-03-09T15:06:52.976Z,8.30
2019-03-09T15:09:39.171Z,8.30
2019-03-09T15:12:24.781Z,8.20
2019-03-09T15:15:31.269Z,7.90
2019-03-09T15:18:16.572Z,7.20
2019-03-09T15:21:02.055Z,6.10
2019-03-09T15:23:47.602Z,6.10
2019-03-09T15:26:34.035Z,5.90
2019-03-09T15:29:19.614Z,5.90
2019-03-09T15:32:05.799Z,5.80
2019-03-09T15:34:50.525Z,5.80
2019-03-09T15:37:35.467Z,5.80
2019-03-09T15:40:21.417Z,5.80
2019-03-09T15:43:07.569Z,5.80
2019-03-09T15:45:52.857Z,5.80
2019-03-09T15:48:38.073Z,5.80
2019-03-09T15:51:23.367Z,5.80
2019-03-09T15:54:08.948Z,5.80
2019-03-09T15:56:55.632Z,5.80
2019-03-09T15:59:41.924Z,5.80
2019-03-09T16:02:27.100Z,5.80
2019-03-09T16:05:13.552Z,5.80
2019-03-09T16:07:58.622Z,5.80
2019-03-09T16:10:43.864Z,5.80
2019-03-09T16:13:48.827Z,5.70
2019-03-09T16:16:36.297Z,5.80
2019-03-09T16:19:20.996Z,5.80
2019-03-09T16:22:06.839Z,5.80
2019-03-09T16:24:51.917Z,5.80
2019-03-09T16:27:37.277Z,5.80
2019-03-09T16:30:23.123Z,5.90
2019-03-09T16:33:08.783Z,6.00
2019-03-09T16:35:54.152Z,6.40
2019-03-09T16:38:39.458Z,6.40
2019-03-09T16:41:24.762Z,6.60
2019-03-09T16:44:09.889Z,6.50
2019-03-09T16:46:55.108Z,6.50
2019-03-09T16:49:40.539Z,6.50
2019-03-09T16:52:26.551Z,6.40
2019-03-09T16:55:14.639Z,6.30
2019-03-09T16:58:19.822Z,6.20
2019-03-09T17:01:05.810Z,6.20
2019-03-09T17:03:52.564Z,6.00
2019-03-09T17:06:37.921Z,6.00
2019-03-09T17:09:25.106Z,5.80
2019-03-09T17:12:10.670Z,5.80
2019-03-09T17:14:55.871Z,5.80
2019-03-09T17:17:42.932Z,5.80
2019-03-09T17:20:28.007Z,5.80
2019-03-09T17:23:13.387Z,5.80
2019-03-09T17:26:00.742Z,5.80
2019-03-09T17:28:45.899Z,5.80
2019-03-09T17:31:31.460Z,5.80
2019-03-09T17:34:16.369Z,5.60
2019-03-09T17:37:01.702Z,5.50
2019-03-09T17:39:47.080Z,5.50
2019-03-09T17:42:32.656Z,5.50
2019-03-09T17:45:23.616Z,5.50
2019-03-09T17:48:08.884Z,5.50
2019-03-09T17:50:54.456Z,5.60
2019-03-09T17:53:40.766Z,5.60
2019-03-09T17:56:26.454Z,5.70
2019-03-09T17:59:11.378Z,5.70
2019-03-09T18:01:56.146Z,5.80
2019-03-09T18:04:41.332Z,5.80
2019-03-09T18:07:26.198Z,5.80
2019-03-09T18:10:15.063Z,5.80
2019-03-09T18:13:00.609Z,5.80
2019-03-09T18:15:46.922Z,5.70
2019-03-09T18:18:32.365Z,5.70
2019-03-09T18:21:19.202Z,5.70
2019-03-09T18:24:04.797Z,5.70
2019-03-09T18:26:49.604Z,5.70
2019-03-09T18:29:34.757Z,5.80
2019-03-09T18:32:20.249Z,5.80
2019-03-09T18:35:08.739Z,5.70
2019-03-09T18:37:54.169Z,5.70
2019-03-09T18:40:39.633Z,5.70
2019-03-09T18:43:25.346Z,5.70
2019-03-09T18:46:10.818Z,5.70
2019-03-09T18:48:56.596Z,5.70
2019-03-09T18:51:41.699Z,5.70
2019-03-09T18:54:26.953Z,5.70
2019-03-09T18:57:12.788Z,5.70
2019-03-09T19:00:00.347Z,5.70
2019-03-09T19:02:45.641Z,5.70
2019-03-09T19:05:30.879Z,5.80
2019-03-09T19:08:16.532Z,5.80
2019-03-09T19:11:01.463Z,5.80
2019-03-09T19:13:47.295Z,5.80
2019-03-09T19:16:31.930Z,5.80
2019-03-09T19:19:17.241Z,5.80
2019-03-09T19:22:02.551Z,5.80
2019-03-09T19:24:48.036Z,5.70
2019-03-09T19:27:33.273Z,5.80
2019-03-09T19:30:22.379Z,5.70
2019-03-09T19:33:08.353Z,5.70
2019-03-09T19:35:53.742Z,5.70
2019-03-09T19:38:39.061Z,5.70
2019-03-09T19:41:24.400Z,5.60
2019-03-09T19:44:09.303Z,5.70
2019-03-09T19:46:54.480Z,5.60
2019-03-09T19:49:39.728Z,5.60
2019-03-09T19:52:25.317Z,5.60
2019-03-09T19:55:10.290Z,5.60
2019-03-09T19:57:55.516Z,5.60
2019-03-09T20:00:40.891Z,5.60
2019-03-09T20:03:26.021Z,5.60
2019-03-09T20:06:11.085Z,5.60
2019-03-09T20:08:56.386Z,5.60
2019-03-09T20:11:41.705Z,5.50
2019-03-09T20:14:27.078Z,5.50
2019-03-09T20:17:12.289Z,5.50
2019-03-09T20:19:57.575Z,5.50
2019-03-09T20:22:42.706Z,5.50
2019-03-09T20:25:28.642Z,5.50
2019-03-09T20:28:14.117Z,5.50
2019-03-09T20:30:59.316Z,5.50
2019-03-09T20:33:45.681Z,5.50
2019-03-09T20:36:30.796Z,5.50
2019-03-09T20:39:16.288Z,5.50
2019-03-09T20:42:01.665Z,5.60
2019-03-09T20:44:48.273Z,5.60
2019-03-09T20:47:33.654Z,5.60
2019-03-09T20:50:20.728Z,5.60
2019-03-09T20:53:06.740Z,5.60
2019-03-09T20:55:52.013Z,5.60
2019-03-09T20:58:38.283Z,5.60
2019-03-09T21:01:23.739Z,5.70
2019-03-09T21:04:08.919Z,5.70
2019-03-09T21:06:55.437Z,5.80
2019-03-09T21:09:40.651Z,5.80
2019-03-09T21:12:25.765Z,5.80
2019-03-09T21:15:12.131Z,5.80
2019-03-09T21:17:57.437Z,5.90
2019-03-09T21:20:42.828Z,5.90
2019-03-09T21:23:29.362Z,5.90
2019-03-09T21:26:14.465Z,5.90
2019-03-09T21:29:02.440Z,5.80
2019-03-09T21:31:47.394Z,5.80
2019-03-09T21:34:32.836Z,5.90
2019-03-09T21:37:17.685Z,5.90
2019-03-09T21:40:05.027Z,5.90
2019-03-09T21:42:51.335Z,5.90
2019-03-09T21:45:36.921Z,5.80
2019-03-09T21:48:22.095Z,5.80
2019-03-09T21:51:13.555Z,5.80
2019-03-09T21:53:56.317Z,5.80
2019-03-09T21:56:41.047Z,5.80
2019-03-09T21:59:25.765Z,5.70
2019-03-09T22:02:10.721Z,5.70
2019-03-09T22:04:58.291Z,5.60
2019-03-09T22:07:43.631Z,5.60
2019-03-09T22:10:29.036Z,5.50
2019-03-09T22:13:14.209Z,5.50
2019-03-09T22:16:01.678Z,5.50
2019-03-09T22:18:46.964Z,5.40
2019-03-09T22:21:32.303Z,5.40
2019-03-09T22:24:19.220Z,5.40
2019-03-09T22:27:07.424Z,5.40
2019-03-09T22:29:53.380Z,5.30
2019-03-09T22:32:38.212Z,5.30
2019-03-09T22:35:23.006Z,5.20
2019-03-09T22:38:08.166Z,5.10
2019-03-09T22:40:53.964Z,5.10
2019-03-09T22:43:39.459Z,5.10
2019-03-09T22:46:24.645Z,5.10
2019-03-09T22:49:10.034Z,5.00
2019-03-09T22:51:55.033Z,5.00
2019-03-09T22:54:40.496Z,4.90
2019-03-09T22:57:26.534Z,4.90
2019-03-09T23:00:20.853Z,4.80
2019-03-09T23:03:10.246Z,4.80
2019-03-09T23:05:54.345Z,4.80
2019-03-09T23:08:39.285Z,4.70
2019-03-09T23:11:24.516Z,4.70
2019-03-09T23:14:09.371Z,4.70
2019-03-09T23:16:54.976Z,4.60
2019-03-09T23:19:40.069Z,4.70
2019-03-09T23:22:25.206Z,4.70
2019-03-09T23:25:11.826Z,4.60
2019-03-09T23:27:56.798Z,4.60
2019-03-09T23:30:41.672Z,4.60
2019-03-09T23:33:26.922Z,4.60
2019-03-09T23:36:12.506Z,4.60
2019-03-09T23:38:57.777Z,4.60
2019-03-09T23:41:43.081Z,4.60
2019-03-09T23:44:28.361Z,4.60
2019-03-09T23:47:13.827Z,4.60
2019-03-09T23:49:58.920Z,4.70
2019-03-09T23:52:44.736Z,4.80
2019-03-09T23:55:30.129Z,5.00
2019-03-09T23:58:15.316Z,5.00
